KBKW/BKW METAR and TAF weather

Enter ICAO airport designator
Station Type Date Time Source
KBKW METAR 2018/01/23 01:51 UTC NOAA

KBKW 230151Z AUTO 15007KT 10SM OVC075 11/06 A2985 RMK AO2 SLP104 T01110056 TSNO


Station Type Date Time Source
KBKW Decoded METAR 2018/01/23 01:51 UTC NOAA

RALEIGH COUNTY MEM AIRPORT , WV, United States (KBKW) 37-48N 081-07W 764M
Jan 22, 2018 - 08:51 PM EST / 2018.01.23 0151 UTC
Wind: from the SSE (150 degrees) at 8 MPH (7 KT):0
Visibility: 10 mile(s):0
Sky conditions: overcast
Temperature: 52.0 F (11.1 C)
Dew Point: 42.1 F (5.6 C)
Relative Humidity: 68%
Pressure (altimeter): 29.85 in. Hg (1010 hPa)
ob: KBKW 230151Z AUTO 15007KT 10SM OVC075 11/06 A2985 RMK AO2 SLP104 T01110056 TSNO
cycle: 2

Station Type Date Time Source
KBKW TAF 2018/01/22 18:42 UTC NOAA

TAF KBKW 221739Z 2218/2318 16010G18KT P6SM SCT100 BKN200
FM230100 16010G18KT P6SM VCSH BKN080 WS020/19045KT
FM230700 19012G20KT 5SM -SHRA OVC030
FM230900 24010G20KT P6SM BKN040
FM231300 25015G25KT P6SM BKN040


Example: see airport list